Weather Models
Both GFS & NAM
00z 06z 12z 18z
24hr Precip
00z 06z 12z 18z
36hr Simulated radar
00z 06z 12z 18z
SKEWT Soundings
00z 12z
Current Conditions (Updated 10:20pm on 7/15/18)
Temperature
 81°
-0.93
86°  
73°  
0
10
20
30
40
50
60
70
80
90
100
Dew Point
70°
72°  
55°  
-20
-10
0
10
20
30
40
50
60
70
80
Heat Index
85°
90°  
77°  
30
40
50
60
70
80
90
100
110
120
130
Heat Index
Humidity
68%
83% 
39% 
0
10
20
30
40
50
60
70
80
90
100
Barometer
29.99
   Steady
30.07  
29.96  
28.00
28.30
28.60
28.90
29.20
29.50
29.80
30.10
30.40
30.70
31.00
Temperature
Dew Point
Humidity
Pressure
Wind
7mph
  W
Daily Rain
.00
.05
.10
.15
.20
.25
.30
.35
.40
.45
.50
Rain Today
 0.42" 
Month Rain
0.00
0.20
0.40
0.60
0.80
1.00
1.20
1.40
1.60
1.80
2.00
Month Rain
 1.16" 
Year Rain
0.00
5.00
10.00
15.00
20.00
25.00
30.00
35.00
40.00
45.00
50.00
Year Rain
 28.08" 
Sun & Moon Data
Sunrise 5:46am
Sunset 8:29pm
Moonrise 8:38am
Moonset 10:38pm
Moon % 10%
Other Rain Data
Past Hour 0.00 Past 24 Hours 0.42
Past 3 Hours 0.00 Past 7 Days 0.52
Past 6 Hours 0.00
Cloud Height
2889


Current Front Map
Current Satellite map
7 Day Forecast
NWS Forecast for Philadelphia PA
National Weather Service Forecast for: Philadelphia PA
Issued by: National Weather Service Philadelphia, PA
Updated: 9:36 pm EDT Jul 15, 2018

Philadelphia
 
Tonight

Tonight: Patchy fog after 3am.  Otherwise, mostly clear, with a low around 73. Southwest wind around 7 mph.
Mostly Clear
then Patchy
Fog
Monday

Monday: A chance of showers and thunderstorms, mainly after 4pm.  Patchy fog before 9am.  Otherwise, partly sunny, with a high near 93. Southwest wind 5 to 10 mph.  Chance of precipitation is 30%. New rainfall amounts of less than a tenth of an inch, except higher amounts possible in thunderstorms.
Patchy Fog
then Chance
T-storms
Monday
Night
Monday Night: A chance of showers and thunderstorms before 9pm, then a slight chance of showers.  Mostly cloudy, with a low around 75. South wind 6 to 8 mph.  Chance of precipitation is 30%. New precipitation amounts of less than a tenth of an inch, except higher amounts possible in thunderstorms.
Chance
T-storms then
Slight Chance
Showers
Tuesday

Tuesday: A slight chance of showers, then showers and thunderstorms after 9am. Some of the storms could produce heavy rain.  High near 88. Southwest wind around 7 mph.  Chance of precipitation is 80%. New rainfall amounts between a quarter and half of an inch possible.
Heavy Rain

Tuesday
Night
Tuesday Night: Showers and thunderstorms before 3am, then a chance of showers. Some of the storms could produce heavy rain.  Low around 68. Calm wind becoming north around 6 mph after midnight.  Chance of precipitation is 80%. New rainfall amounts between a quarter and half of an inch possible.
Heavy Rain

Wednesday

Wednesday: A chance of showers before 9am.  Sunny, with a high near 83. Chance of precipitation is 30%. New precipitation amounts of less than a tenth of an inch possible.
Chance
Showers then
Sunny
Wednesday
Night
Wednesday Night: Mostly clear, with a low around 63.
Mostly Clear

Thursday

Thursday: Sunny, with a high near 84.
Sunny

Thursday
Night
Thursday Night: Mostly clear, with a low around 63.
Mostly Clear

Lo 73 °F Hi 93 °F Lo 75 °F Hi 88 °F Lo 68 °F Hi 83 °F Lo 63 °F Hi 84 °F Lo 63 °F

Hazardous Weather Outlook
 

Tonight
 
Patchy fog after 3am. Otherwise, mostly clear, with a low around 73. Southwest wind around 7 mph.
Monday
 
A chance of showers and thunderstorms, mainly after 4pm. Patchy fog before 9am. Otherwise, partly sunny, with a high near 93. Southwest wind 5 to 10 mph. Chance of precipitation is 30%. New rainfall amounts of less than a tenth of an inch, except higher amounts possible in thunderstorms.
Monday Night
 
A chance of showers and thunderstorms before 9pm, then a slight chance of showers. Mostly cloudy, with a low around 75. South wind 6 to 8 mph. Chance of precipitation is 30%. New precipitation amounts of less than a tenth of an inch, except higher amounts possible in thunderstorms.
Tuesday
 
A slight chance of showers, then showers and thunderstorms after 9am. Some of the storms could produce heavy rain. High near 88. Southwest wind around 7 mph. Chance of precipitation is 80%. New rainfall amounts between a quarter and half of an inch possible.
Tuesday Night
 
Showers and thunderstorms before 3am, then a chance of showers. Some of the storms could produce heavy rain. Low around 68. Calm wind becoming north around 6 mph after midnight. Chance of precipitation is 80%. New rainfall amounts between a quarter and half of an inch possible.
Wednesday
 
A chance of showers before 9am. Sunny, with a high near 83. Chance of precipitation is 30%. New precipitation amounts of less than a tenth of an inch possible.
Wednesday Night
 
Mostly clear, with a low around 63.
Thursday
 
Sunny, with a high near 84.
Thursday Night
 
Mostly clear, with a low around 63.
Friday
 
Mostly sunny, with a high near 85.
Friday Night
 
A chance of showers and thunderstorms. Mostly cloudy, with a low around 66. Chance of precipitation is 30%.
Saturday
 
A chance of showers and thunderstorms. Partly sunny, with a high near 85. Chance of precipitation is 40%.
Saturday Night
 
A chance of showers and thunderstorms. Mostly cloudy, with a low around 69. Chance of precipitation is 40%.
Sunday
 
A chance of showers and thunderstorms. Partly sunny, with a high near 86. Chance of precipitation is 40%.

 

Forecast from NOAA-NWS for Philadelphia PA.

Area Weather Current Conditions
Nearby METAR Reports

KPHL - Philadelphia, Pennsylvania
Updated: Sun, 15-Jul-2018 9:54pm EDT
Mostly Cloudy
Mostly Cloudy
 Wind from SW
Wind: SW 8 mph , 13 km/h
Temperature: 79°F , 26°C
Dew Point: 70°F , 21°C
Humidity: 74%
Barometer: 29.99 inHg , 1015.6 hPa
Clouds: Mostly Cloudy
Visibility: 10 miles , 16 km
Cloud details: Mostly Cloudy 25000 ft
2018/07/16 01:54 KPHL 160154Z 22007KT 10SM BKN250 26/21 A2999 RMK AO2 SLP156 T02610211 $
KMPO - Mt. Pocono, Pennsylvania
Updated: Sun, 15-Jul-2018 9:53pm EDT
Clear
Clear
 Wind from WNW
Wind: WNW 3 mph , 6 km/h
Temperature: 72°F , 22°C
Dew Point: 68°F , 20°C
Humidity: 88%
Barometer: 30.05 inHg , 1017.6 hPa
Clouds: Clear
Visibility: 10 miles , 16 km
2018/07/16 01:53 KMPO 160153Z AUTO 29003KT 10SM CLR 22/20 A3005 RMK AO2 SLP165 T02170200
 
KACY - Atlantic City, New Jersey
Updated: Sun, 15-Jul-2018 9:54pm EDT
Clear
Clear
 Wind from S
Wind: S 5 mph , 7 km/h
Temperature: 79°F , 26°C
Dew Point: 73°F , 23°C
Humidity: 84%
Barometer: 30.00 inHg , 1015.9 hPa
Clouds: Clear
Visibility: 10 miles , 16 km
2018/07/16 01:54 KACY 160154Z 19004KT 10SM CLR 26/23 A3000 RMK AO2 SLP158 T02560228
KMIV - Millville, New Jersey
Updated: Sun, 15-Jul-2018 9:54pm EDT
Clear
Clear
 Wind from calm
Wind: Calm
Temperature: 72°F , 22°C
Dew Point: 70°F , 21°C
Humidity: 94%
Barometer: 30.00 inHg , 1015.9 hPa
Clouds: Clear
Visibility: 10 miles , 16 km
2018/07/16 01:54 KMIV 160154Z AUTO 00000KT 10SM CLR 22/21 A3000 RMK AO2 RAB36E44 SLP158 P0000 T02220206
 
KWWD - Wildwood, New Jersey
Updated: Sun, 15-Jul-2018 9:55pm EDT
Clear
Clear
 Wind from S
Wind: S 3 mph , 6 km/h
Temperature: 75°F , 24°C
Dew Point: 70°F , 21°C
Humidity: 83%
Barometer: 30.01 inHg , 1016.3 hPa
Clouds: Clear
Visibility: 10 miles , 16 km
2018/07/16 01:55 KWWD 160155Z AUTO 18003KT 10SM CLR 24/21 A3001 RMK AO2 SLP164 T02440211
KDOV - Dover Afb, Delaware
Updated: Sun, 15-Jul-2018 9:56pm EDT
Clear
Clear
 Wind from calm
Wind: Calm
Temperature: 75°F , 24°C
Dew Point: 70°F , 21°C
Humidity: 83%
Barometer: 30.00 inHg , 1015.9 hPa
Clouds: Clear
Visibility: 10 miles , 16 km
2018/07/16 01:56 KDOV 160156Z AUTO 00000KT 10SM CLR 24/21 A3000 RMK AO2 SLP162 T02350212 $
Severe Weather Map
Recent Forum Post
[Philadelphia] 2017 -2018 Winter snow forecast by JC December 06, 2017, 02:00:35 AM
[Philadelphia] Request for Philly Snow Data by JC February 14, 2017, 08:42:21 PM
[Philadelphia] 2016 -2017 Winter snow forecast by JC December 01, 2016, 04:56:31 AM
[Philadelphia] Winter forecast 2016-2017 by xyonist November 30, 2016, 01:14:08 PM
[Philadelphia] 102.7 last Saturday by JC August 20, 2016, 03:26:22 AM
[Philadelphia] 2015 -2016 Winter snow forecast by JC April 19, 2016, 09:42:40 AM
[Philadelphia] Latest Models on Weekend Storm (Photos) by JC January 23, 2016, 12:01:03 PM
[Philadelphia] Possible large snow storm for end of week ? by JC January 21, 2016, 09:17:47 AM